createdAt,value
2022-09-05T00:01:44.802Z,5.03
2022-09-05T00:04:53.432Z,4.20
2022-09-05T00:07:57.718Z,4.35
2022-09-05T00:10:36.116Z,5.63
2022-09-05T00:13:10.790Z,6.05
2022-09-05T00:16:03.560Z,4.28
2022-09-05T00:21:53.264Z,4.95
2022-09-05T00:24:28.940Z,5.18
2022-09-05T00:25:00.997Z,4.55
2022-09-05T00:27:51.773Z,6.13
2022-09-05T00:31:06.607Z,8.77
2022-09-05T00:33:32.192Z,5.40
2022-09-05T00:36:37.980Z,3.15
2022-09-05T00:39:12.118Z,6.00
2022-09-05T00:41:40.652Z,5.00
2022-09-05T00:44:09.595Z,3.58
2022-09-05T00:46:43.481Z,4.00
2022-09-05T00:49:29.968Z,4.45
2022-09-05T00:52:13.522Z,4.32
2022-09-05T00:54:41.501Z,3.90
2022-09-05T00:57:36.660Z,6.03
2022-09-05T01:00:12.579Z,5.13
2022-09-05T01:03:43.999Z,4.60
2022-09-05T01:06:16.192Z,4.07
2022-09-05T01:09:19.873Z,4.90
2022-09-05T01:12:16.746Z,4.45
2022-09-05T01:15:32.786Z,4.25
2022-09-05T01:18:31.129Z,4.13
2022-09-05T01:21:07.001Z,4.78
2022-09-05T01:24:11.929Z,6.57
2022-09-05T01:27:08.112Z,4.13
2022-09-05T01:29:42.075Z,4.80
2022-09-05T01:32:22.437Z,3.63
2022-09-05T01:35:25.816Z,5.70
2022-09-05T01:38:05.538Z,3.58
2022-09-05T01:41:18.343Z,5.82
2022-09-05T01:44:10.523Z,9.30
2022-09-05T01:46:55.455Z,4.65
2022-09-05T01:49:45.976Z,4.30
2022-09-05T01:52:25.351Z,5.93
2022-09-05T01:55:03.458Z,5.15
2022-09-05T01:57:55.190Z,6.57
2022-09-05T02:00:40.707Z,5.45
2022-09-05T02:03:19.541Z,4.38
2022-09-05T02:06:18.789Z,4.55
2022-09-05T02:09:17.951Z,6.10
2022-09-05T02:11:53.666Z,5.15
2022-09-05T02:14:33.967Z,4.40
2022-09-05T02:17:49.511Z,4.40
2022-09-05T02:20:26.566Z,3.90
2022-09-05T02:23:24.770Z,4.30
2022-09-05T02:26:09.013Z,4.88
2022-09-05T02:28:54.919Z,7.70
2022-09-05T02:31:39.975Z,5.18
2022-09-05T02:34:21.024Z,4.68
2022-09-05T02:37:11.314Z,7.95
2022-09-05T02:45:00.677Z,4.55
2022-09-05T02:45:07.357Z,3.40
2022-09-05T02:45:52.026Z,4.80
2022-09-05T02:48:37.122Z,4.88
2022-09-05T02:57:27.403Z,5.90
2022-09-05T02:57:36.531Z,4.53
2022-09-05T02:57:37.625Z,3.53
2022-09-05T03:00:23.148Z,5.07
2022-09-05T03:03:28.016Z,3.80
2022-09-05T03:06:34.642Z,4.75
2022-09-05T03:09:24.930Z,4.60
2022-09-05T03:12:29.997Z,5.00
2022-09-05T03:15:22.791Z,6.68
2022-09-05T03:18:20.716Z,4.63
2022-09-05T03:21:10.007Z,3.63
2022-09-05T03:23:48.820Z,6.88
2022-09-05T03:26:38.617Z,8.05
2022-09-05T03:29:25.472Z,4.82
2022-09-05T03:32:15.108Z,4.10
2022-09-05T03:35:32.429Z,5.97
2022-09-05T03:38:14.693Z,5.35
2022-09-05T03:40:49.039Z,4.70
2022-09-05T03:43:37.982Z,9.82
2022-09-05T03:46:21.649Z,5.72
2022-09-05T03:50:18.677Z,4.53
2022-09-05T03:57:06.021Z,5.38
2022-09-05T03:57:16.805Z,4.53
2022-09-05T03:59:02.490Z,8.30
2022-09-05T04:02:51.288Z,4.03
2022-09-05T04:08:20.671Z,5.18
2022-09-05T04:08:23.832Z,5.43
2022-09-05T04:10:58.213Z,4.05
2022-09-05T04:13:27.178Z,6.47
2022-09-05T04:16:03.188Z,5.75
2022-09-05T04:18:41.318Z,6.38
2022-09-05T04:21:39.839Z,8.93
2022-09-05T04:26:51.991Z,4.75
2022-09-05T04:29:35.594Z,5.63
2022-09-05T04:32:18.986Z,9.25
2022-09-05T04:35:03.887Z,4.75
2022-09-05T04:37:55.309Z,6.18
2022-09-05T04:40:35.765Z,6.37
2022-09-05T04:43:30.181Z,5.65
2022-09-05T04:46:13.874Z,6.55
2022-09-05T04:48:47.013Z,5.57
2022-09-05T04:51:36.524Z,7.38
2022-09-05T04:54:27.578Z,5.13
2022-09-05T04:57:14.233Z,5.57
2022-09-05T05:04:42.378Z,5.20
2022-09-05T05:06:08.914Z,5.65
2022-09-05T05:06:17.746Z,7.30
2022-09-05T05:08:38.969Z,9.00
2022-09-05T05:13:10.676Z,6.78
2022-09-05T05:18:12.507Z,5.40
2022-09-05T05:18:15.154Z,5.88
2022-09-05T05:20:41.940Z,6.88
2022-09-05T05:23:29.390Z,6.45
2022-09-05T05:26:00.311Z,7.55
2022-09-05T05:28:52.751Z,6.32
2022-09-05T05:31:47.684Z,6.35
2022-09-05T05:34:36.026Z,5.50
2022-09-05T05:37:21.510Z,7.38
2022-09-05T05:40:10.480Z,6.45
2022-09-05T05:42:40.164Z,5.57
2022-09-05T05:45:28.848Z,6.57
2022-09-05T05:48:05.518Z,4.85
2022-09-05T05:50:51.785Z,6.75
2022-09-05T05:53:57.863Z,5.60
2022-09-05T05:56:50.553Z,7.75
2022-09-05T05:59:35.426Z,6.75
2022-09-05T06:02:11.525Z,6.55
2022-09-05T06:04:44.745Z,10.45
2022-09-05T06:07:33.368Z,9.10
2022-09-05T06:14:56.051Z,8.50
2022-09-05T06:15:01.922Z,9.75
2022-09-05T06:17:51.979Z,6.97
2022-09-05T06:22:06.197Z,7.50
2022-09-05T06:26:41.028Z,8.73
2022-09-05T06:29:20.011Z,9.75
2022-09-05T06:32:06.459Z,8.48
2022-09-05T06:34:46.605Z,8.50
2022-09-05T06:37:45.005Z,6.72
2022-09-05T06:40:17.116Z,8.13
2022-09-05T06:42:58.886Z,6.30
2022-09-05T06:45:39.324Z,8.77
2022-09-05T06:48:46.033Z,9.82
2022-09-05T06:51:24.117Z,8.52
2022-09-05T06:53:54.853Z,6.50
2022-09-05T06:56:29.991Z,7.35
2022-09-05T06:59:44.699Z,6.90
2022-09-05T07:02:59.617Z,7.63
2022-09-05T07:05:56.568Z,6.90
2022-09-05T07:08:45.440Z,6.65
2022-09-05T07:11:16.758Z,8.52
2022-09-05T07:14:01.567Z,9.23
2022-09-05T07:16:38.906Z,6.93
2022-09-05T07:19:46.979Z,8.65
2022-09-05T07:22:48.073Z,6.78
2022-09-05T07:25:31.579Z,7.05
2022-09-05T07:28:29.310Z,9.38
2022-09-05T07:31:05.795Z,5.25
2022-09-05T07:33:34.724Z,5.57
2022-09-05T07:36:10.634Z,6.07
2022-09-05T07:38:55.200Z,6.97
2022-09-05T07:41:34.983Z,10.07
2022-09-05T07:44:25.288Z,7.38
2022-09-05T07:47:12.380Z,5.78
2022-09-05T07:50:36.468Z,5.32
2022-09-05T07:56:55.763Z,5.25
2022-09-05T07:57:01.601Z,6.88
2022-09-05T07:58:51.718Z,4.43
2022-09-05T08:01:21.571Z,3.92
2022-09-05T08:03:55.582Z,5.32
2022-09-05T08:06:54.103Z,5.25
2022-09-05T08:10:06.772Z,5.00
2022-09-05T08:12:28.480Z,4.78
2022-09-05T08:15:03.973Z,4.75
2022-09-05T08:17:33.183Z,7.57
2022-09-05T08:20:24.133Z,5.18
2022-09-05T08:23:21.467Z,4.63
2022-09-05T08:26:16.120Z,5.03
2022-09-05T08:28:58.835Z,4.70
2022-09-05T08:31:38.553Z,7.22
2022-09-05T08:34:18.540Z,5.68
2022-09-05T08:36:59.719Z,3.75
2022-09-05T08:39:31.937Z,3.88
2022-09-05T08:42:07.928Z,3.60
2022-09-05T08:46:41.810Z,6.70
2022-09-05T08:47:54.720Z,3.53
2022-09-05T08:51:02.641Z,4.05
2022-09-05T08:54:13.794Z,4.03
2022-09-05T08:56:52.198Z,3.67
2022-09-05T08:59:33.349Z,3.85
2022-09-05T09:02:45.634Z,3.88
2022-09-05T09:05:38.876Z,3.15
2022-09-05T09:09:01.027Z,3.38
2022-09-05T09:11:36.989Z,4.72
2022-09-05T09:14:30.881Z,4.53
2022-09-05T09:17:28.504Z,7.47
2022-09-05T09:20:21.675Z,4.57
2022-09-05T09:22:51.660Z,5.32
2022-09-05T09:25:31.842Z,3.35
2022-09-05T09:28:48.036Z,4.65
2022-09-05T09:31:50.196Z,4.28
2022-09-05T09:34:20.509Z,3.63
2022-09-05T09:37:05.329Z,5.38
2022-09-05T09:39:56.813Z,2.97
2022-09-05T09:42:46.347Z,3.70
2022-09-05T09:45:46.116Z,6.80
2022-09-05T09:48:44.748Z,3.65
2022-09-05T09:51:30.401Z,3.22
2022-09-05T09:54:31.309Z,6.68
2022-09-05T09:57:01.340Z,2.47
2022-09-05T09:59:55.388Z,4.82
2022-09-05T10:05:35.441Z,2.67
2022-09-05T10:10:35.274Z,5.22
2022-09-05T10:10:44.491Z,3.65
2022-09-05T10:11:55.872Z,4.35
2022-09-05T10:14:49.531Z,4.45
2022-09-05T10:17:30.105Z,4.78
2022-09-05T10:20:13.194Z,3.88
2022-09-05T10:26:27.643Z,4.25
2022-09-05T10:29:37.661Z,2.13
2022-09-05T10:35:04.804Z,4.82
2022-09-05T10:35:29.198Z,5.00
2022-09-05T10:38:20.508Z,2.05
2022-09-05T10:41:20.149Z,8.30
2022-09-05T10:43:53.972Z,4.25
2022-09-05T10:46:50.067Z,5.15
2022-09-05T10:49:24.809Z,4.57
2022-09-05T10:51:57.143Z,4.30
2022-09-05T10:54:39.450Z,3.92
2022-09-05T10:57:06.327Z,1.83
2022-09-05T11:02:19.198Z,2.45
2022-09-05T11:02:58.272Z,2.28
2022-09-05T11:05:32.642Z,2.83
2022-09-05T11:08:05.578Z,3.22
2022-09-05T11:10:53.887Z,3.70
2022-09-05T11:13:44.786Z,2.33
2022-09-05T11:16:14.554Z,3.63
2022-09-05T11:19:03.683Z,2.05
2022-09-05T11:21:36.343Z,2.67
2022-09-05T11:24:48.321Z,3.42
2022-09-05T11:27:40.202Z,2.53
2022-09-05T11:30:30.072Z,5.55
2022-09-05T11:36:06.929Z,3.85
2022-09-05T11:40:06.360Z,2.50
2022-09-05T11:40:28.269Z,3.05
2022-09-05T11:43:13.736Z,1.50
2022-09-05T11:45:55.553Z,2.53
2022-09-05T11:48:54.116Z,2.92
2022-09-05T11:51:33.688Z,1.77
2022-09-05T11:54:16.074Z,2.90
2022-09-05T11:57:33.845Z,2.65
2022-09-05T12:00:32.775Z,2.78
2022-09-05T12:03:41.441Z,1.77
2022-09-05T12:09:23.675Z,2.67
2022-09-05T12:12:27.068Z,2.83
2022-09-05T12:15:25.775Z,3.90
2022-09-05T12:17:58.749Z,3.53
2022-09-05T12:20:49.226Z,3.22
2022-09-05T12:23:58.070Z,2.25
2022-09-05T12:27:44.635Z,1.92
2022-09-05T12:29:59.356Z,1.52
2022-09-05T12:35:18.982Z,3.35
2022-09-05T12:36:12.191Z,2.60
2022-09-05T12:40:55.264Z,1.73
2022-09-05T12:41:40.656Z,2.97
2022-09-05T12:44:50.396Z,1.75
2022-09-05T12:47:23.085Z,2.60
2022-09-05T12:50:14.459Z,1.77
2022-09-05T12:52:59.951Z,3.03
2022-09-05T12:55:33.368Z,1.77
2022-09-05T13:03:02.854Z,2.25
2022-09-05T13:03:14.611Z,2.47
2022-09-05T13:04:34.926Z,1.20
2022-09-05T13:07:16.649Z,3.40
2022-09-05T13:11:33.605Z,2.25
2022-09-05T13:15:03.005Z,1.35
2022-09-05T13:15:53.339Z,3.65
2022-09-05T13:18:28.625Z,2.42
2022-09-05T13:21:08.628Z,2.20
2022-09-05T13:24:05.611Z,1.83
2022-09-05T13:26:46.367Z,1.83
2022-09-05T13:29:18.604Z,1.90
2022-09-05T13:38:01.557Z,3.53
2022-09-05T13:38:10.407Z,4.03
2022-09-05T13:38:10.929Z,4.32
2022-09-05T13:40:43.596Z,2.20
2022-09-05T13:43:26.625Z,3.25
2022-09-05T13:46:11.138Z,2.55
2022-09-05T13:51:51.289Z,4.07
2022-09-05T13:54:39.089Z,3.00
2022-09-05T13:57:31.716Z,3.50
2022-09-05T14:00:28.260Z,1.48
2022-09-05T14:03:38.966Z,1.85
2022-09-05T14:06:46.988Z,2.08
2022-09-05T14:09:38.643Z,2.25
2022-09-05T14:15:14.320Z,1.77
2022-09-05T14:17:56.671Z,2.38
2022-09-05T14:20:49.654Z,2.92
2022-09-05T14:23:20.815Z,1.42
2022-09-05T14:26:00.910Z,1.80
2022-09-05T14:28:46.615Z,2.38
2022-09-05T14:36:53.414Z,2.13
2022-09-05T14:37:41.493Z,2.53
2022-09-05T14:38:04.268Z,2.72
2022-09-05T14:40:44.090Z,1.90
2022-09-05T14:43:17.484Z,2.15
2022-09-05T14:46:02.945Z,2.80
2022-09-05T14:48:58.719Z,1.42
2022-09-05T14:51:39.397Z,1.90
2022-09-05T15:00:02.521Z,3.88
2022-09-05T15:03:01.006Z,2.38
2022-09-05T15:05:29.613Z,2.67
2022-09-05T15:08:38.191Z,2.95
2022-09-05T15:12:20.615Z,4.20
2022-09-05T15:13:57.227Z,1.63
2022-09-05T15:16:25.722Z,2.35
2022-09-05T15:18:53.467Z,4.45
2022-09-05T15:21:33.377Z,1.65
2022-09-05T15:24:14.935Z,8.18
2022-09-05T15:26:55.221Z,1.85
2022-09-05T15:29:31.413Z,1.98
2022-09-05T15:32:21.279Z,1.60
2022-09-05T15:34:52.373Z,1.63
2022-09-05T15:37:28.088Z,1.98
2022-09-05T15:40:07.772Z,2.22
2022-09-05T15:42:57.600Z,3.20
2022-09-05T15:45:29.612Z,1.88
2022-09-05T15:48:16.174Z,2.63
2022-09-05T15:50:56.841Z,2.72
2022-09-05T15:53:36.925Z,2.73
2022-09-05T15:58:54.144Z,3.05
2022-09-05T16:01:35.868Z,2.97
2022-09-05T16:10:27.037Z,2.50
2022-09-05T16:10:37.857Z,3.20
2022-09-05T16:10:41.914Z,3.97
2022-09-05T16:12:57.498Z,3.17
2022-09-05T16:19:51.881Z,2.30
2022-09-05T16:23:25.480Z,2.55
2022-09-05T16:23:29.337Z,1.73
2022-09-05T16:24:57.903Z,2.55
2022-09-05T16:27:34.512Z,2.13
2022-09-05T16:30:05.359Z,2.05
2022-09-05T16:32:41.386Z,3.22
2022-09-05T16:35:18.386Z,5.80
2022-09-05T16:37:57.398Z,6.28
2022-09-05T16:40:35.604Z,2.72
2022-09-05T16:43:24.123Z,5.75
2022-09-05T16:46:20.738Z,2.78
2022-09-05T16:48:55.279Z,4.32
2022-09-05T16:51:36.272Z,4.90
2022-09-05T16:54:26.540Z,3.45
2022-09-05T16:57:02.542Z,3.25
2022-09-05T16:59:35.250Z,3.95
2022-09-05T17:02:26.327Z,2.70
2022-09-05T17:05:05.963Z,1.52
2022-09-05T17:08:24.579Z,3.50
2022-09-05T17:11:03.760Z,2.08
2022-09-05T17:13:36.967Z,2.80
2022-09-05T17:16:05.417Z,3.03
2022-09-05T17:18:36.130Z,4.00
2022-09-05T17:21:09.287Z,2.47
2022-09-05T17:29:24.356Z,3.53
2022-09-05T17:29:31.939Z,4.30
2022-09-05T17:32:47.215Z,3.95
2022-09-05T17:35:17.336Z,6.97
2022-09-05T17:38:23.059Z,5.78
2022-09-05T17:41:20.752Z,5.38
2022-09-05T17:44:05.790Z,4.72
2022-09-05T17:46:34.461Z,4.90
2022-09-05T17:49:19.780Z,5.22
2022-09-05T17:52:16.458Z,4.72
2022-09-05T17:54:49.958Z,9.25
2022-09-05T17:57:29.387Z,6.68
2022-09-05T18:00:00.181Z,12.45
2022-09-05T18:02:32.821Z,9.23
2022-09-05T18:05:01.206Z,8.93
2022-09-05T18:07:29.278Z,8.68
2022-09-05T18:10:12.645Z,8.90
2022-09-05T18:13:13.419Z,7.63
2022-09-05T18:15:35.953Z,6.07
2022-09-05T18:18:24.270Z,8.57
2022-09-05T18:21:21.172Z,4.78
2022-09-05T18:23:58.469Z,10.07
2022-09-05T18:26:27.170Z,12.25
2022-09-05T18:29:14.405Z,9.43
2022-09-05T18:31:43.378Z,11.23
2022-09-05T18:34:13.795Z,7.43
2022-09-05T18:36:48.675Z,7.30
2022-09-05T18:39:29.474Z,7.43
2022-09-05T18:42:33.358Z,10.63
2022-09-05T18:45:15.502Z,7.80
2022-09-05T18:50:32.510Z,9.02
2022-09-05T18:53:10.560Z,7.40
2022-09-05T18:56:10.185Z,9.05
2022-09-05T18:59:29.224Z,6.25
2022-09-05T19:02:28.843Z,19.33
2022-09-05T19:05:15.846Z,35.47
2022-09-05T19:07:48.190Z,20.65
2022-09-05T19:10:36.115Z,18.50
2022-09-05T19:13:10.622Z,17.98
2022-09-05T19:15:52.962Z,17.95
2022-09-05T19:18:27.895Z,13.35
2022-09-05T19:20:56.149Z,10.65
2022-09-05T19:23:27.425Z,9.35
2022-09-05T19:26:09.714Z,9.43
2022-09-05T19:36:53.518Z,8.65
2022-09-05T19:36:56.934Z,8.63
2022-09-05T19:37:13.239Z,12.23
2022-09-05T19:37:37.483Z,8.70
2022-09-05T19:43:19.881Z,37.05
2022-09-05T19:47:40.244Z,11.77
2022-09-05T19:47:56.385Z,14.35
2022-09-05T19:48:34.796Z,11.63
2022-09-05T19:51:16.798Z,9.57
2022-09-05T19:53:53.966Z,8.75
2022-09-05T19:56:38.232Z,6.93
2022-09-05T19:59:24.781Z,11.68
2022-09-05T20:01:53.127Z,10.88
2022-09-05T20:04:20.975Z,8.73
2022-09-05T20:06:49.565Z,7.53
2022-09-05T20:09:24.861Z,6.45
2022-09-05T20:11:56.076Z,6.82
2022-09-05T20:14:30.576Z,5.63
2022-09-05T20:17:28.653Z,4.95
2022-09-05T20:20:09.371Z,5.60
2022-09-05T20:22:48.892Z,7.32
2022-09-05T20:25:47.227Z,4.35
2022-09-05T20:28:26.714Z,4.05
2022-09-05T20:30:58.011Z,5.32
2022-09-05T20:33:41.153Z,6.20
2022-09-05T20:40:40.175Z,5.25
2022-09-05T20:43:16.876Z,4.20
2022-09-05T20:43:30.951Z,5.75
2022-09-05T20:44:50.449Z,4.75
2022-09-05T20:54:04.713Z,4.20
2022-09-05T20:54:14.084Z,5.72
2022-09-05T20:54:21.532Z,4.57
2022-09-05T20:56:31.026Z,4.87
2022-09-05T20:58:58.702Z,5.55
2022-09-05T21:01:27.191Z,6.47
2022-09-05T21:04:02.754Z,6.13
2022-09-05T21:06:34.960Z,8.23
2022-09-05T21:09:25.143Z,7.78
2022-09-05T21:11:58.684Z,6.82
2022-09-05T21:14:28.350Z,6.80
2022-09-05T21:17:12.003Z,6.80
2022-09-05T21:19:52.071Z,9.57
2022-09-05T21:22:21.099Z,6.40
2022-09-05T21:24:48.770Z,6.45
2022-09-05T21:27:21.513Z,5.72
2022-09-05T21:29:58.762Z,5.88
2022-09-05T21:32:37.859Z,5.53
2022-09-05T21:35:15.458Z,4.60
2022-09-05T21:37:53.965Z,5.32
2022-09-05T21:40:21.327Z,5.88
2022-09-05T21:47:32.929Z,8.95
2022-09-05T21:47:34.798Z,6.00
2022-09-05T21:48:23.922Z,5.82
2022-09-05T21:50:57.232Z,5.05
2022-09-05T21:55:21.913Z,7.00
2022-09-05T21:59:21.157Z,6.10
2022-09-05T21:59:36.576Z,7.53
2022-09-05T22:02:07.167Z,6.75
2022-09-05T22:04:35.615Z,5.45
2022-09-05T22:07:08.301Z,5.03
2022-09-05T22:09:35.162Z,5.30
2022-09-05T22:12:06.107Z,9.98
2022-09-05T22:14:48.801Z,6.07
2022-09-05T22:17:17.291Z,4.50
2022-09-05T22:19:45.851Z,7.60
2022-09-05T22:22:18.311Z,5.82
2022-09-05T22:24:59.755Z,6.97
2022-09-05T22:27:28.515Z,4.70
2022-09-05T22:29:57.435Z,7.68
2022-09-05T22:32:33.972Z,8.25
2022-09-05T22:35:27.026Z,5.05
2022-09-05T22:38:10.872Z,7.90
2022-09-05T22:40:39.545Z,4.88
2022-09-05T22:43:08.093Z,6.05
2022-09-05T22:45:36.312Z,7.20
2022-09-05T22:48:12.909Z,6.72
2022-09-05T22:50:41.416Z,11.07
2022-09-05T22:53:09.930Z,5.30
2022-09-05T22:55:38.936Z,7.90
2022-09-05T22:58:07.985Z,5.97
2022-09-05T23:00:35.084Z,6.75
2022-09-05T23:03:03.776Z,6.80
2022-09-05T23:05:31.599Z,6.25
2022-09-05T23:08:03.042Z,8.20
2022-09-05T23:10:30.701Z,6.07
2022-09-05T23:12:58.748Z,9.50
2022-09-05T23:15:26.496Z,5.22
2022-09-05T23:17:57.702Z,8.30
2022-09-05T23:20:26.618Z,7.88
2022-09-05T23:22:53.405Z,7.47
2022-09-05T23:25:21.765Z,6.28
2022-09-05T23:27:49.282Z,7.50
2022-09-05T23:30:17.008Z,7.93
2022-09-05T23:32:48.954Z,10.43
2022-09-05T23:37:44.306Z,7.63
2022-09-05T23:40:17.719Z,6.18
2022-09-05T23:43:17.250Z,7.85
2022-09-05T23:45:47.387Z,8.23
2022-09-05T23:48:14.299Z,6.85
2022-09-05T23:50:43.970Z,6.35
2022-09-05T23:53:10.856Z,6.60
2022-09-05T23:55:37.936Z,5.75
2022-09-05T23:58:04.836Z,12.20
